General Aviation Weather

Text Reports

Enter one or more of the following location identifiers separated by a space:

Zip Code, Four-Character ICAO or Three-Character IATA airport codes.

METAR - Aviation Routine Weather Report
MDLR - Cabo Engano,
Updated at 6:00 PM GMT on February 11, 2016 (2:00 PM AST):
METAR MDLR 111800Z 06010KT 9999 SCT022 31/21 Q1016
TAF - Terminal Area Forecast
MDLR - Cabo Engano,
Updated at 6:00 PM GMT on February 11, 2016 (2:00 PM AST):
TAF MDLR 111600Z 1118/1218 09010KT 9999 SCT022 PROB30 1118/1123 8000
-SH SCT018 SCT070
Decoded:
ID: MDLR   La Romana Inter, DR
REPORT TIME: 11 16: 0
VALID TIME: 11 February AT 18:00Z to 12 February AT 18:00Z.
INITIAL WX
   WINDS: 90 AT 10
   CLOUDS: 22 SCT
30% PROBABILITY OF WX FROM 18Z TO 23Z
   VISIBILITY: 5.0 MILES
   WEATHER: -SH
   CLOUDS: 18 SCT
   CLOUDS: 70 SCT
   COMMENTS: TAF MDCY 111600Z 1118/1218 00000KT 9999 SCT022 
TEMPORARY WX FROM 18Z TO 23Z
   VISIBILITY: 4.3 MILES
   WEATHER: -RA
   CLOUDS: 16 BKN
   CLOUDS: 70 SCT
40% PROBABILITY OF WX FROM 00Z TO 06Z
   VISIBILITY: 3.1 MILES
   WEATHER: RA
   CLOUDS: 14 BKN
   CLOUDS: 70 BKN
   COMMENTS: = 

PIREP - Pilot Weather Report
MDLR - Cabo Engano,
Updated at 6:00 PM GMT on February 11, 2016 (2:00 PM AST):
No PIREP is currently available for this location.
AIRMET - Airmens Meteorological Information
MDLR - Cabo Engano,
Updated at 6:00 PM GMT on February 11, 2016 (2:00 PM AST):
No AIRMET is currently available for this location.
SIGMET - Significant Meteorological Information
MDLR - Cabo Engano,
Updated at 6:00 PM GMT on February 11, 2016 (2:00 PM AST):
No SIGMET is currently available for this location.
NOTAM - Notice to Airmen
MDLR - Cabo Engano,
Updated at 6:00 PM GMT on February 11, 2016 (2:00 PM AST):
No NOTAM is currently available for this location.
Forecast Area
MDLR - Cabo Engano,
Updated at 6:00 PM GMT on February 11, 2016 (2:00 PM AST):
No NOTAM is currently available for this location.
Aviation Weather Maps